ノヴォシビルスク の空港の天気 - METARとTAF

トルマチェヴォ空港(ノヴォシビルスク) ( UNNT / OVB ) - ロシア ノヴォシビルスク
飛行場実況気象(Metar)
観測時間08/18 08:30 OMST (08/18 02:30 UTC)
風向・風速北 2m/s
視程10km以上
天気現象
全天の8割程度の雲 雲底高度 120m
気温15℃
湿度94%
気圧1015hPa
METARUNNT 180230Z 01002MPS 9999 BKN004 15/14 Q1015 R25/290160 R34/290160 NOSIG RMK QBB120 QFE751/1002
過去の天気等 Google飛行場航空写真 Wunderground天気予報

過去48時間のMETAR

飛行場予報(TAF)
発表時間: 8/18 08:00 OMST (8/18 02:00 UTC)
予報対象時間: 18日9時 OMST ~ 19日9時 OMST
風向・風速北 3m/s 瞬間風速 8m/s
視程10km以上
全天の8割程度の積乱雲 雲底高度 460m
18日9時 OMST ~ 18日23時 OMST に一時的に
風向・風速北 8m/s 瞬間風速 13m/s
視程1,500m
天気現象雷雨
全天の8割程度の雲 雲底高度 150m
全天の8割程度の積乱雲 雲底高度 300m
18日23時 OMST から
風向・風速北西 3m/s 瞬間風速 8m/s
視程4,000m
天気現象もや
全天の8割程度の雲 雲底高度 340m
18日23時 OMST ~ 19日9時 OMST に一時的に
視程1,500m
天気現象もや
全天の4割程度の雲 雲底高度 60m
全天の8割程度の雲 雲底高度 150m
TAF UNNT 180200Z 1803/1903 35003G08MPS 9999 BKN015CB
TEMPO 1803/1817 01008G13MPS 1500 TSRA BKN005 BKN010CB
FM181700 31003G08MPS 4000 BR BKN011
TEMPO 1817/1903 1500 BR SCT002 BKN005